Time;durP1;ratioP1;P1;durP2;ratioP2;P2;SDS_P1;SDS_P2;PMS_P1;PMS_P2;Temp;Humidity;BMP_temperature;BMP_pressure;BME280_temperature;BME280_humidity;BME280_pressure;Samples;Min_cycle;Max_cycle;Signal;HPM_P1;HPM_P2
2022/01/12 00:00:50;;;;;;;19.80;12.57;;;4.90;93.80;;;;;;5068372;28;20481;-47
2022/01/12 00:03:17;;;;;;;24.20;13.50;;;4.80;93.80;;;;;;5066371;28;20528;-49
2022/01/12 00:05:43;;;;;;;25.63;14.57;;;4.80;94.00;;;;;;5057648;28;21002;-48
2022/01/12 00:08:10;;;;;;;15.20;11.73;;;4.80;94.00;;;;;;5060046;27;20483;-48
2022/01/12 00:10:39;;;;;;;15.27;11.07;;;4.80;94.00;;;;;;5091317;27;20475;-48
2022/01/12 00:13:06;;;;;;;11.53;10.03;;;4.80;94.00;;;;;;5089126;27;20752;-48
2022/01/12 00:15:34;;;;;;;11.83;8.87;;;4.80;94.00;;;;;;5103685;27;21007;-48
2022/01/12 00:18:01;;;;;;;12.23;8.20;;;4.80;93.90;;;;;;5071933;28;20499;-47
2022/01/12 00:20:29;;;;;;;11.63;9.17;;;4.90;94.00;;;;;;5064061;28;20482;-48
2022/01/12 00:22:56;;;;;;;10.93;8.27;;;4.90;94.30;;;;;;5100793;27;20915;-48
2022/01/12 00:25:30;;;;;;;12.60;8.20;;;4.80;93.90;;;;;;5069089;28;20985;-48
2022/01/12 00:33:27;;;;;;;13.33;8.00;;;4.70;93.70;;;;;;5093671;27;20520;-48
2022/01/12 00:35:56;;;;;;;10.37;7.40;;;4.60;93.60;;;;;;5085204;27;20478;-48
2022/01/12 00:38:25;;;;;;;20.80;8.63;;;4.50;93.30;;;;;;5073998;28;20578;-48
2022/01/12 00:40:54;;;;;;;10.20;7.90;;;4.50;93.60;;;;;;5075544;27;20575;-48
2022/01/12 00:43:25;;;;;;;7.60;6.40;;;4.40;93.60;;;;;;5107159;27;20478;-48
2022/01/12 00:45:54;;;;;;;10.37;7.00;;;4.30;93.20;;;;;;5084400;28;20545;-48
2022/01/12 00:48:21;;;;;;;8.63;6.90;;;4.30;93.50;;;;;;5091776;27;20488;-48
2022/01/12 00:50:48;;;;;;;10.07;7.27;;;4.30;93.70;;;;;;5096624;27;20492;-48
2022/01/12 00:53:16;;;;;;;12.23;8.03;;;4.20;93.40;;;;;;5088251;27;20550;-47
2022/01/12 00:55:42;;;;;;;7.57;6.80;;;4.20;93.70;;;;;;5104099;27;20482;-47
2022/01/12 00:58:09;;;;;;;8.73;7.90;;;4.10;93.80;;;;;;5094922;27;20501;-49
2022/01/12 01:00:37;;;;;;;10.97;8.00;;;4.00;93.60;;;;;;5110078;27;20479;-48
2022/01/12 01:03:05;;;;;;;11.00;8.50;;;4.00;93.70;;;;;;5081519;28;20474;-48
2022/01/12 01:05:33;;;;;;;22.73;10.30;;;3.90;93.70;;;;;;5095794;27;20484;-48
2022/01/12 01:08:01;;;;;;;8.20;7.40;;;3.90;93.80;;;;;;5096879;27;20485;-48
2022/01/12 01:10:39;;;;;;;14.17;9.40;;;3.90;93.80;;;;;;5085806;28;21279;-48
2022/01/12 01:13:07;;;;;;;13.10;7.60;;;3.90;93.90;;;;;;5083557;28;20484;-48
2022/01/12 01:16:00;;;;;;;11.60;8.60;;;3.90;93.90;;;;;;5083935;28;20482;-48
2022/01/12 01:26:45;;;;;;;13.30;6.93;;;3.50;93.70;;;;;;5077315;28;20493;-48
2022/01/12 01:29:13;;;;;;;11.40;7.50;;;3.50;93.90;;;;;;5101896;27;20484;-47
2022/01/12 01:31:42;;;;;;;13.67;8.87;;;3.30;94.20;;;;;;5082110;27;20490;-48
2022/01/12 01:34:12;;;;;;;13.10;7.47;;;3.10;94.20;;;;;;5081017;28;21107;-47
2022/01/12 01:36:41;;;;;;;11.43;7.30;;;3.10;94.40;;;;;;5064024;28;20478;-47
2022/01/12 01:39:10;;;;;;;9.40;8.10;;;3.00;94.60;;;;;;5080896;28;21232;-48
2022/01/12 01:41:39;;;;;;;14.60;8.17;;;3.00;94.90;;;;;;5082894;28;20485;-48
2022/01/12 01:55:05;;;;;;;18.13;7.97;;;3.00;94.80;;;;;;5085020;27;20572;-48
2022/01/12 01:57:32;;;;;;;14.47;8.47;;;3.00;94.90;;;;;;5080879;28;20894;-50
2022/01/12 01:59:59;;;;;;;10.97;7.93;;;3.10;94.80;;;;;;5069755;28;20489;-48
2022/01/12 02:02:27;;;;;;;13.93;7.97;;;3.10;95.00;;;;;;5087653;28;20552;-47
2022/01/12 02:04:55;;;;;;;10.93;8.63;;;3.10;94.90;;;;;;5057052;28;20469;-48
2022/01/12 02:07:22;;;;;;;12.47;8.43;;;3.10;95.00;;;;;;5090755;28;20871;-47
2022/01/12 02:09:49;;;;;;;12.33;7.73;;;3.10;94.90;;;;;;5072070;28;20474;-48
2022/01/12 02:12:24;;;;;;;12.43;8.63;;;3.10;95.00;;;;;;5081533;28;20482;-48
2022/01/12 02:14:51;;;;;;;11.00;7.70;;;3.00;94.90;;;;;;5076268;28;20486;-48
2022/01/12 02:17:22;;;;;;;10.70;7.43;;;2.90;94.60;;;;;;5105986;27;20485;-48
2022/01/12 02:20:06;;;;;;;11.60;8.30;;;2.80;94.80;;;;;;5084056;28;21125;-48
2022/01/12 02:36:54;;;;;;;12.10;7.73;;;2.80;95.00;;;;;;5002338;28;20523;-47
2022/01/12 02:42:07;;;;;;;12.17;8.60;;;2.80;95.20;;;;;;5063925;28;20542;-47
2022/01/12 02:55:33;;;;;;;33.83;12.97;;;2.50;95.00;;;;;;5043580;28;20490;-48
2022/01/12 02:58:00;;;;;;;42.70;18.47;;;2.60;95.20;;;;;;5053495;28;20972;-48
2022/01/12 03:00:37;;;;;;;29.60;15.93;;;2.50;95.30;;;;;;5073050;28;20930;-49
2022/01/12 03:03:04;;;;;;;36.03;17.00;;;2.50;95.00;;;;;;5061068;28;20474;-48
2022/01/12 03:05:35;;;;;;;32.77;14.70;;;2.40;94.60;;;;;;5063693;28;20518;-48
2022/01/12 03:08:11;;;;;;;31.37;14.70;;;2.40;94.90;;;;;;5061223;28;20975;-48
2022/01/12 03:10:39;;;;;;;36.73;17.03;;;2.40;94.80;;;;;;5063764;28;20507;-49
2022/01/12 03:13:06;;;;;;;36.33;16.50;;;2.40;95.10;;;;;;5087258;27;20505;-48
2022/01/12 03:15:39;;;;;;;26.90;14.03;;;2.30;94.90;;;;;;5099652;27;21005;-50
2022/01/12 03:18:06;;;;;;;30.87;16.13;;;2.30;95.10;;;;;;5090309;27;20520;-48
2022/01/12 03:20:33;;;;;;;17.13;11.03;;;2.20;94.90;;;;;;5058832;28;20497;-48
2022/01/12 03:23:00;;;;;;;14.23;8.50;;;2.10;95.00;;;;;;5059017;28;20510;-48
2022/01/12 03:25:27;;;;;;;20.27;10.43;;;2.00;95.00;;;;;;5084227;28;20481;-48
2022/01/12 03:27:59;;;;;;;15.47;10.37;;;2.00;95.30;;;;;;5083983;28;20492;-48
2022/01/12 03:30:26;;;;;;;14.60;9.57;;;1.90;95.10;;;;;;5069483;28;20474;-47
2022/01/12 03:33:07;;;;;;;9.83;7.97;;;1.90;95.40;;;;;;5076254;28;20480;-47
2022/01/12 03:35:48;;;;;;;11.63;8.50;;;1.80;95.20;;;;;;5051805;28;20967;-48
2022/01/12 03:38:21;;;;;;;12.50;9.23;;;1.70;95.40;;;;;;5068251;28;20485;-48
2022/01/12 03:40:48;;;;;;;12.40;8.57;;;1.80;95.50;;;;;;5060991;28;20497;-48
2022/01/12 03:43:17;;;;;;;21.90;12.30;;;1.80;95.50;;;;;;5053216;28;20544;-48
2022/01/12 03:45:46;;;;;;;19.67;9.63;;;1.70;95.20;;;;;;5089254;28;20479;-48
2022/01/12 03:48:13;;;;;;;27.53;13.50;;;1.70;95.40;;;;;;5058880;28;20483;-48
2022/01/12 03:50:40;;;;;;;22.00;10.43;;;1.70;95.60;;;;;;5059468;28;20485;-47
2022/01/12 03:53:07;;;;;;;31.83;14.20;;;1.70;95.60;;;;;;5070130;27;20483;-48
2022/01/12 03:55:34;;;;;;;21.83;10.77;;;1.70;95.30;;;;;;5109288;27;20487;-47
2022/01/12 03:58:01;;;;;;;62.77;28.83;;;1.70;95.00;;;;;;5081799;28;20487;-48
2022/01/12 04:00:29;;;;;;;17.30;10.90;;;1.60;95.10;;;;;;5083872;28;20492;-47
2022/01/12 04:02:56;;;;;;;16.93;8.97;;;1.60;95.30;;;;;;5076878;28;20495;-48
2022/01/12 04:05:39;;;;;;;16.30;9.87;;;1.60;95.40;;;;;;5090965;28;20491;-48
2022/01/12 04:08:20;;;;;;;13.47;8.50;;;1.60;95.60;;;;;;5083375;28;20834;-48
2022/01/12 04:10:47;;;;;;;12.90;9.73;;;1.60;95.60;;;;;;5079139;27;20897;-48
2022/01/12 04:13:14;;;;;;;10.43;8.60;;;1.60;95.60;;;;;;5107180;27;20524;-47
2022/01/12 04:15:42;;;;;;;18.50;8.90;;;1.50;95.50;;;;;;5080591;28;20501;-48
2022/01/12 04:18:09;;;;;;;15.93;9.17;;;1.50;95.70;;;;;;5083412;28;21163;-48
2022/01/12 04:20:38;;;;;;;14.33;9.30;;;1.50;96.10;;;;;;5083202;28;20482;-48
2022/01/12 04:23:18;;;;;;;17.13;10.23;;;1.50;96.00;;;;;;5086210;28;20473;-48
2022/01/12 04:25:46;;;;;;;13.57;8.13;;;1.50;96.20;;;;;;5077518;28;20492;-48
2022/01/12 04:28:13;;;;;;;13.87;9.33;;;1.50;96.10;;;;;;5079388;28;20483;-48
2022/01/12 04:30:42;;;;;;;15.90;9.23;;;1.60;96.10;;;;;;5084828;28;20493;-49
2022/01/12 04:33:09;;;;;;;14.47;8.30;;;1.60;95.80;;;;;;5085569;28;20989;-48
2022/01/12 04:35:40;;;;;;;19.77;9.40;;;1.70;95.90;;;;;;5085654;28;20537;-48
2022/01/12 04:38:07;;;;;;;19.50;9.17;;;1.70;96.10;;;;;;5084581;28;20476;-48
2022/01/12 04:40:34;;;;;;;16.43;10.63;;;1.70;95.90;;;;;;5085112;28;20474;-48
2022/01/12 04:43:01;;;;;;;17.37;10.27;;;1.70;95.80;;;;;;5086331;28;20485;-48
2022/01/12 04:45:39;;;;;;;15.10;10.77;;;1.70;95.80;;;;;;5086472;28;20487;-48
2022/01/12 04:48:30;;;;;;;14.90;10.07;;;1.70;95.80;;;;;;5084082;28;20468;-48
2022/01/12 04:50:58;;;;;;;13.10;9.70;;;1.70;96.00;;;;;;5085876;28;20481;-48
2022/01/12 04:53:25;;;;;;;12.60;8.50;;;1.70;95.90;;;;;;5085009;28;20493;-48
2022/01/12 04:55:53;;;;;;;18.73;9.30;;;1.80;95.90;;;;;;5084511;28;20478;-48
2022/01/12 04:58:21;;;;;;;12.67;9.13;;;1.80;95.80;;;;;;5083271;28;20546;-48
2022/01/12 05:00:50;;;;;;;15.50;9.47;;;1.70;95.70;;;;;;5085770;28;20569;-48
2022/01/12 05:09:06;;;;;;;17.20;9.87;;;1.70;95.60;;;;;;5094207;27;20492;-47
2022/01/12 05:14:18;;;;;;;15.93;10.23;;;1.70;95.40;;;;;;5076884;28;20539;-48
2022/01/12 05:16:45;;;;;;;16.13;9.53;;;1.60;95.70;;;;;;5074318;27;20576;-48
2022/01/12 05:19:13;;;;;;;15.40;10.40;;;1.60;95.90;;;;;;5094206;27;20869;-48
2022/01/12 05:21:39;;;;;;;16.90;9.87;;;1.60;95.80;;;;;;5104740;27;20494;-48
2022/01/12 05:24:07;;;;;;;16.90;9.67;;;1.60;95.20;;;;;;5086260;27;20477;-48
2022/01/12 05:26:34;;;;;;;12.83;9.50;;;1.60;95.50;;;;;;5082882;28;21040;-48
2022/01/12 05:29:01;;;;;;;15.97;9.03;;;1.60;95.30;;;;;;5066898;28;20572;-48
2022/01/12 05:31:28;;;;;;;19.03;9.87;;;1.50;95.50;;;;;;5062031;28;20482;-48
2022/01/12 05:33:58;;;;;;;14.53;10.03;;;1.50;95.80;;;;;;5065117;28;20486;-48
2022/01/12 05:36:28;;;;;;;18.93;9.80;;;1.50;95.70;;;;;;5064690;28;20516;-48
2022/01/12 05:38:55;;;;;;;13.63;9.30;;;1.50;95.70;;;;;;5068058;28;20487;-48
2022/01/12 05:41:22;;;;;;;17.07;9.80;;;1.60;95.70;;;;;;5080800;28;20495;-48
2022/01/12 05:43:48;;;;;;;15.03;10.03;;;1.60;95.70;;;;;;5084160;28;20601;-48
2022/01/12 05:46:17;;;;;;;16.23;9.97;;;1.60;95.70;;;;;;5087836;28;21231;-48
2022/01/12 05:51:31;;;;;;;14.23;9.27;;;1.60;95.40;;;;;;5091224;28;20533;-48
2022/01/12 05:53:58;;;;;;;16.73;10.73;;;1.50;95.10;;;;;;5085447;28;20487;-48
2022/01/12 05:56:25;;;;;;;17.30;11.20;;;1.40;94.80;;;;;;5080311;28;20480;-48
2022/01/12 05:58:52;;;;;;;13.37;9.53;;;1.40;95.10;;;;;;5082000;28;20486;-48
2022/01/12 06:01:19;;;;;;;17.03;9.60;;;1.40;95.20;;;;;;5078335;28;20481;-48
2022/01/12 06:03:46;;;;;;;15.20;10.40;;;1.40;95.20;;;;;;5080752;27;20484;-48
2022/01/12 06:06:13;;;;;;;14.90;10.00;;;1.40;95.50;;;;;;5085346;27;20493;-50
2022/01/12 06:08:41;;;;;;;20.30;11.37;;;1.40;95.30;;;;;;5083277;28;20542;-48
2022/01/12 06:11:08;;;;;;;16.50;10.60;;;1.30;95.30;;;;;;5076556;28;20506;-49
2022/01/12 06:13:35;;;;;;;21.47;12.10;;;1.30;95.60;;;;;;5071441;28;21047;-48
2022/01/12 06:16:01;;;;;;;24.87;13.53;;;1.30;95.50;;;;;;5057742;28;20509;-48
2022/01/12 06:18:28;;;;;;;24.23;14.07;;;1.10;94.90;;;;;;5051538;28;20508;-48
2022/01/12 06:20:55;;;;;;;21.67;12.30;;;1.00;95.00;;;;;;5066720;28;20514;-48
2022/01/12 06:23:21;;;;;;;16.87;11.23;;;1.00;95.10;;;;;;5061855;28;20497;-48
2022/01/12 06:25:49;;;;;;;25.00;11.77;;;1.00;95.60;;;;;;5038336;28;20486;-48
2022/01/12 06:28:36;;;;;;;20.20;10.20;;;1.00;95.50;;;;;;5049162;28;20482;-48
2022/01/12 06:31:13;;;;;;;11.10;8.97;;;1.00;95.80;;;;;;5050930;28;20493;-48
2022/01/12 06:33:42;;;;;;;16.80;9.97;;;1.00;95.90;;;;;;5044712;28;20951;-48
2022/01/12 06:36:09;;;;;;;15.73;10.17;;;1.00;96.00;;;;;;5050712;28;20485;-48
2022/01/12 06:38:36;;;;;;;13.60;9.03;;;1.10;95.70;;;;;;5059679;28;20492;-47
2022/01/12 06:41:04;;;;;;;21.70;11.23;;;1.10;95.60;;;;;;5061341;28;20491;-47
2022/01/12 06:43:31;;;;;;;17.20;9.43;;;1.10;95.70;;;;;;5060328;28;20489;-48
2022/01/12 06:45:58;;;;;;;21.20;11.77;;;1.10;95.40;;;;;;5063406;28;20492;-48
2022/01/12 06:48:26;;;;;;;14.73;9.23;;;1.10;95.70;;;;;;5063351;28;21067;-48
2022/01/12 06:50:52;;;;;;;14.47;9.77;;;1.10;95.70;;;;;;5061642;28;20550;-48
2022/01/12 06:53:19;;;;;;;21.70;11.37;;;1.20;95.60;;;;;;5061579;28;20566;-47
2022/01/12 06:55:46;;;;;;;12.33;9.53;;;1.20;95.80;;;;;;5051140;28;20474;-48
2022/01/12 06:58:14;;;;;;;32.77;17.83;;;1.10;95.80;;;;;;5054765;28;20482;-48
2022/01/12 07:00:41;;;;;;;58.33;28.20;;;1.10;96.00;;;;;;5040602;28;20520;-48
2022/01/12 07:03:08;;;;;;;41.10;18.57;;;1.10;96.30;;;;;;5040881;28;20486;-48
2022/01/12 07:05:35;;;;;;;23.80;13.20;;;1.10;96.20;;;;;;5072009;27;20503;-48
2022/01/12 07:08:01;;;;;;;21.00;11.63;;;1.10;95.40;;;;;;5064630;28;20492;-48
2022/01/12 07:10:28;;;;;;;25.00;11.90;;;1.10;95.40;;;;;;5060116;28;21307;-48
2022/01/12 07:12:55;;;;;;;19.20;11.23;;;1.20;95.50;;;;;;5046700;28;20489;-48
2022/01/12 07:15:24;;;;;;;31.10;16.90;;;1.10;95.50;;;;;;5042243;28;20485;-48
2022/01/12 07:17:51;;;;;;;40.60;21.03;;;1.20;95.50;;;;;;5059092;28;20488;-48
2022/01/12 07:20:17;;;;;;;29.20;18.63;;;1.10;95.30;;;;;;5056615;28;20543;-48
2022/01/12 07:22:44;;;;;;;31.03;14.20;;;1.10;95.30;;;;;;5057176;28;20481;-48
2022/01/12 07:25:11;;;;;;;43.43;18.90;;;1.10;95.40;;;;;;5058195;28;20501;-48
2022/01/12 07:27:40;;;;;;;36.73;15.30;;;1.10;95.40;;;;;;5056189;28;20485;-53
2022/01/12 07:30:08;;;;;;;28.47;15.77;;;1.20;95.50;;;;;;5055008;28;20492;-48
2022/01/12 07:32:36;;;;;;;19.23;13.00;;;1.10;95.40;;;;;;5058423;28;20496;-48
2022/01/12 07:35:03;;;;;;;17.70;12.17;;;1.10;95.70;;;;;;5053662;28;20525;-48
2022/01/12 07:37:30;;;;;;;15.80;10.60;;;1.10;95.50;;;;;;5074287;28;20497;-48
2022/01/12 07:39:57;;;;;;;23.90;13.40;;;1.10;95.40;;;;;;5053631;28;20890;-49
2022/01/12 07:42:24;;;;;;;22.93;14.40;;;1.10;95.60;;;;;;5061778;28;20518;-48
2022/01/12 07:44:58;;;;;;;21.83;14.77;;;1.10;95.70;;;;;;5052875;28;20526;-48
2022/01/12 07:47:25;;;;;;;19.17;11.70;;;1.10;95.70;;;;;;5056740;28;20468;-49
2022/01/12 07:49:53;;;;;;;18.97;11.10;;;1.00;95.30;;;;;;5081623;28;20562;-48
2022/01/12 07:52:20;;;;;;;17.80;10.53;;;1.00;95.50;;;;;;5049482;28;20546;-48
2022/01/12 07:54:47;;;;;;;24.43;15.07;;;1.00;95.70;;;;;;5056579;28;20507;-49
2022/01/12 07:57:13;;;;;;;25.77;12.43;;;1.00;95.70;;;;;;5057841;28;20488;-48
2022/01/12 07:59:40;;;;;;;18.60;12.63;;;1.10;96.10;;;;;;5093469;28;20534;-49
2022/01/12 08:02:08;;;;;;;16.80;11.83;;;1.10;96.00;;;;;;5081187;28;20476;-49
2022/01/12 08:04:35;;;;;;;22.60;12.93;;;1.20;95.90;;;;;;5078583;28;21010;-49
2022/01/12 08:07:04;;;;;;;20.30;12.10;;;1.20;95.90;;;;;;5086445;28;20514;-49
2022/01/12 08:09:31;;;;;;;20.73;13.50;;;1.30;96.10;;;;;;5078137;28;20481;-48
2022/01/12 08:11:57;;;;;;;22.33;14.23;;;1.40;95.90;;;;;;5080737;27;20486;-49
2022/01/12 08:14:24;;;;;;;20.50;13.17;;;1.40;95.70;;;;;;5090783;28;20489;-51
2022/01/12 08:16:51;;;;;;;19.40;11.90;;;1.40;95.80;;;;;;5071612;28;20485;-49
2022/01/12 08:19:20;;;;;;;16.53;10.63;;;1.30;95.50;;;;;;5077116;28;20610;-49
2022/01/12 08:21:46;;;;;;;18.40;11.90;;;1.30;95.70;;;;;;5081717;28;20507;-49
2022/01/12 08:24:16;;;;;;;43.37;17.50;;;1.50;96.00;;;;;;5073187;28;20554;-49
2022/01/12 08:26:43;;;;;;;25.50;13.70;;;1.60;96.20;;;;;;5068018;28;21302;-50
2022/01/12 08:29:14;;;;;;;28.20;14.90;;;1.70;96.30;;;;;;5079574;28;20485;-49
2022/01/12 08:31:41;;;;;;;27.63;15.90;;;2.30;97.40;;;;;;5079508;28;20477;-49
2022/01/12 08:34:08;;;;;;;25.03;15.87;;;4.40;98.00;;;;;;5084243;28;20981;-49
2022/01/12 08:36:35;;;;;;;23.03;15.17;;;4.50;98.20;;;;;;5085315;28;20466;-48
2022/01/12 08:39:03;;;;;;;18.67;12.00;;;5.70;97.10;;;;;;5104163;27;20991;-49
2022/01/12 08:41:31;;;;;;;24.23;14.47;;;7.60;93.20;;;;;;5086019;28;20855;-49
2022/01/12 08:43:57;;;;;;;21.97;14.10;;;8.70;92.90;;;;;;5080842;28;20478;-49
2022/01/12 08:46:24;;;;;;;19.17;13.00;;;8.80;93.00;;;;;;5082723;28;20483;-49
2022/01/12 08:48:51;;;;;;;22.00;11.30;;;9.70;91.90;;;;;;5075453;28;20793;-49
2022/01/12 08:51:18;;;;;;;14.70;12.00;;;10.40;90.20;;;;;;5079710;28;20505;-49
2022/01/12 08:53:44;;;;;;;14.60;11.50;;;10.90;89.10;;;;;;5078437;28;20480;-48
2022/01/12 08:56:11;;;;;;;19.27;12.77;;;11.70;85.90;;;;;;5072964;28;20479;-49
2022/01/12 08:58:40;;;;;;;18.00;13.77;;;11.70;86.10;;;;;;5080272;28;20864;-49
2022/01/12 09:01:09;;;;;;;17.30;13.23;;;12.10;83.40;;;;;;5071408;28;20511;-49
2022/01/12 09:03:36;;;;;;;32.27;15.53;;;12.30;82.50;;;;;;5078426;28;20488;-49
2022/01/12 09:06:03;;;;;;;17.30;15.20;;;12.30;83.30;;;;;;5084566;28;21139;-48
2022/01/12 09:08:30;;;;;;;20.73;13.00;;;12.50;81.70;;;;;;5076898;28;20481;-49
2022/01/12 09:10:56;;;;;;;17.33;14.00;;;12.50;82.00;;;;;;5082966;28;20872;-48
2022/01/12 09:13:23;;;;;;;20.33;14.50;;;12.50;82.60;;;;;;5084958;27;20485;-48
2022/01/12 09:15:51;;;;;;;17.03;12.37;;;12.40;81.70;;;;;;5081164;28;20492;-48
2022/01/12 09:18:19;;;;;;;26.93;16.60;;;12.20;81.40;;;;;;5095200;27;20478;-49
2022/01/12 09:20:46;;;;;;;19.43;14.80;;;12.10;82.10;;;;;;5090182;27;21029;-48
2022/01/12 09:23:13;;;;;;;14.70;11.80;;;12.00;82.20;;;;;;5075513;28;20477;-48
2022/01/12 09:25:41;;;;;;;20.47;13.30;;;11.70;82.00;;;;;;5073474;28;21057;-48
2022/01/12 09:28:08;;;;;;;16.40;13.00;;;11.50;82.70;;;;;;5056473;28;20496;-48
2022/01/12 09:30:35;;;;;;;17.30;13.70;;;11.20;82.90;;;;;;5062665;28;20495;-48
2022/01/12 09:33:04;;;;;;;15.67;12.80;;;10.90;83.60;;;;;;5095816;27;20483;-49
2022/01/12 09:35:31;;;;;;;19.30;13.60;;;10.60;84.30;;;;;;5084273;28;20483;-48
2022/01/12 09:37:57;;;;;;;16.87;13.30;;;10.40;84.80;;;;;;5084321;28;20481;-49
2022/01/12 09:40:24;;;;;;;15.90;13.13;;;10.20;86.30;;;;;;5082362;28;21191;-48
2022/01/12 09:42:52;;;;;;;16.40;13.30;;;10.10;86.10;;;;;;5072503;27;20496;-48
2022/01/12 09:45:23;;;;;;;17.40;12.70;;;10.00;86.90;;;;;;5107645;27;20492;-48
2022/01/12 09:47:50;;;;;;;17.00;12.13;;;9.80;87.70;;;;;;5083822;27;20988;-48
2022/01/12 09:50:22;;;;;;;15.17;11.50;;;9.60;87.80;;;;;;5096246;27;20484;-48
2022/01/12 09:52:49;;;;;;;20.10;13.77;;;9.50;87.40;;;;;;5077206;28;20999;-49
2022/01/12 09:55:16;;;;;;;15.63;12.03;;;9.40;88.00;;;;;;5069364;27;20561;-48
2022/01/12 09:57:43;;;;;;;16.70;10.63;;;9.20;87.60;;;;;;5098036;27;20484;-48
2022/01/12 10:00:12;;;;;;;16.43;11.90;;;9.10;87.80;;;;;;5084511;27;20480;-48
2022/01/12 10:02:41;;;;;;;14.37;9.17;;;9.10;88.50;;;;;;5102849;27;20988;-48
2022/01/12 10:05:10;;;;;;;12.03;9.37;;;9.00;86.00;;;;;;5090707;27;20564;-48
2022/01/12 10:07:38;;;;;;;13.80;10.30;;;9.00;87.90;;;;;;5083303;28;20484;-48
2022/01/12 10:10:07;;;;;;;12.27;9.60;;;8.90;87.40;;;;;;5077131;28;20558;-49
2022/01/12 10:12:35;;;;;;;13.67;10.70;;;8.80;88.20;;;;;;5095165;27;20483;-48
2022/01/12 10:15:09;;;;;;;18.00;12.40;;;8.80;88.70;;;;;;5082274;27;20963;-48
2022/01/12 10:17:38;;;;;;;15.80;11.50;;;8.80;88.30;;;;;;5051674;28;20483;-49
2022/01/12 10:20:07;;;;;;;29.57;13.30;;;8.90;88.00;;;;;;5076729;28;20873;-48
2022/01/12 10:22:34;;;;;;;15.40;9.80;;;8.80;88.10;;;;;;5074637;28;20956;-48
2022/01/12 10:25:13;;;;;;;10.27;9.20;;;8.80;88.70;;;;;;5062278;28;20487;-48
2022/01/12 10:27:40;;;;;;;11.93;9.43;;;8.80;88.50;;;;;;5066667;28;20879;-49
2022/01/12 10:30:08;;;;;;;19.47;9.23;;;8.80;88.60;;;;;;5071894;28;20528;-49
2022/01/12 10:32:35;;;;;;;13.50;9.43;;;8.80;87.50;;;;;;5084042;28;21276;-48
2022/01/12 10:35:02;;;;;;;10.13;8.03;;;8.80;88.20;;;;;;5077522;28;20498;-48
2022/01/12 10:37:30;;;;;;;13.80;10.50;;;8.80;88.90;;;;;;5079704;28;20483;-49
2022/01/12 10:39:58;;;;;;;13.50;10.37;;;8.70;86.90;;;;;;5077494;28;20482;-49
2022/01/12 10:42:28;;;;;;;42.77;15.53;;;8.70;88.10;;;;;;5076913;27;20489;-50
2022/01/12 10:44:57;;;;;;;10.57;8.83;;;8.70;89.00;;;;;;5088786;27;21066;-49
2022/01/12 10:47:25;;;;;;;15.23;9.83;;;8.90;87.90;;;;;;5058561;28;20514;-49
2022/01/12 10:50:00;;;;;;;11.70;8.17;;;8.90;88.10;;;;;;5072849;28;20837;-49
2022/01/12 10:52:29;;;;;;;11.10;9.37;;;8.90;88.80;;;;;;5024812;28;20527;-49
2022/01/12 10:54:57;;;;;;;12.03;8.57;;;8.90;89.20;;;;;;5037332;28;21090;-49
2022/01/12 10:57:28;;;;;;;11.50;8.23;;;9.00;88.40;;;;;;5036920;28;20487;-49
2022/01/12 11:00:18;;;;;;;13.23;9.30;;;8.90;86.80;;;;;;5049805;28;20539;-48
2022/01/12 11:02:46;;;;;;;12.73;8.97;;;8.80;87.50;;;;;;5063266;28;20565;-48
2022/01/12 11:05:13;;;;;;;12.00;7.97;;;8.80;88.30;;;;;;5054910;28;20489;-48
2022/01/12 11:07:40;;;;;;;9.57;7.80;;;8.70;88.40;;;;;;5080450;28;20488;-49
2022/01/12 11:10:09;;;;;;;11.63;7.67;;;8.80;88.10;;;;;;5061850;28;20525;-49
2022/01/12 11:12:38;;;;;;;14.40;9.10;;;8.70;87.00;;;;;;5056743;28;20483;-49
2022/01/12 11:15:07;;;;;;;11.97;7.00;;;8.60;87.00;;;;;;5058128;28;21331;-48
2022/01/12 11:17:34;;;;;;;9.50;7.40;;;8.50;87.10;;;;;;5054424;28;20515;-48
2022/01/12 11:20:08;;;;;;;13.63;9.80;;;8.50;87.60;;;;;;5058051;28;20595;-48
2022/01/12 11:22:47;;;;;;;11.63;8.77;;;8.50;86.20;;;;;;5056928;28;20507;-48
2022/01/12 11:25:22;;;;;;;11.60;7.97;;;8.40;87.00;;;;;;5061293;28;20594;-48
2022/01/12 11:28:03;;;;;;;12.17;7.80;;;8.50;88.90;;;;;;5055137;28;20490;-48
2022/01/12 11:30:33;;;;;;;14.80;8.10;;;8.50;85.80;;;;;;5058943;28;20961;-48
2022/01/12 11:33:02;;;;;;;11.70;7.40;;;8.50;86.20;;;;;;5061147;28;20483;-49
2022/01/12 11:35:32;;;;;;;14.60;10.00;;;8.50;86.10;;;;;;5065952;28;20484;-48
2022/01/12 11:38:00;;;;;;;12.60;8.07;;;8.40;86.20;;;;;;5053685;28;20479;-48
2022/01/12 11:40:37;;;;;;;10.50;6.87;;;8.40;86.70;;;;;;5048521;28;20489;-48
2022/01/12 11:43:21;;;;;;;10.67;7.40;;;8.30;85.60;;;;;;5056668;28;20843;-49
2022/01/12 11:46:01;;;;;;;7.47;6.03;;;8.20;85.70;;;;;;5055836;28;20501;-48
2022/01/12 11:48:36;;;;;;;9.50;7.43;;;8.20;86.50;;;;;;5053826;28;20898;-49
2022/01/12 11:51:03;;;;;;;8.23;7.40;;;8.10;87.70;;;;;;5050390;28;21345;-48
2022/01/12 11:53:31;;;;;;;8.90;6.60;;;8.20;88.40;;;;;;5052852;28;20490;-49
2022/01/12 11:56:11;;;;;;;11.80;7.87;;;8.20;88.70;;;;;;5076554;28;20471;-49
2022/01/12 11:58:50;;;;;;;18.33;10.40;;;8.40;88.20;;;;;;5067993;27;20561;-50
2022/01/12 12:01:17;;;;;;;11.30;7.53;;;8.40;89.20;;;;;;5031371;27;20937;-49
2022/01/12 12:03:56;;;;;;;15.93;11.03;;;8.60;88.00;;;;;;5082804;27;21241;-48
2022/01/12 12:06:23;;;;;;;14.33;7.90;;;8.90;87.80;;;;;;5068846;28;20543;-49
2022/01/12 12:09:01;;;;;;;15.57;9.50;;;8.90;87.30;;;;;;5068420;28;20489;-49
2022/01/12 12:11:29;;;;;;;11.03;8.23;;;9.20;86.10;;;;;;5062824;28;20520;-48
2022/01/12 12:14:09;;;;;;;12.17;8.50;;;9.20;86.90;;;;;;5048943;28;20489;-48
2022/01/12 12:16:37;;;;;;;7.80;7.00;;;9.20;86.90;;;;;;5063033;28;20559;-48
2022/01/12 12:19:05;;;;;;;9.30;7.37;;;9.20;87.80;;;;;;5081420;28;20482;-48
2022/01/12 12:21:33;;;;;;;9.30;7.33;;;9.00;85.90;;;;;;5069462;28;21000;-48
2022/01/12 12:24:15;;;;;;;11.37;7.90;;;8.90;86.60;;;;;;5062208;28;20496;-48
2022/01/12 12:26:46;;;;;;;12.50;7.70;;;8.70;86.60;;;;;;5058785;28;20493;-48
2022/01/12 12:29:17;;;;;;;10.60;7.73;;;8.60;86.90;;;;;;5089060;28;20567;-48
2022/01/12 12:31:48;;;;;;;9.97;7.50;;;8.70;87.50;;;;;;5062427;28;20489;-48
2022/01/12 12:34:15;;;;;;;8.47;6.97;;;8.80;87.80;;;;;;5065437;28;20568;-48
2022/01/12 12:36:42;;;;;;;10.00;6.40;;;8.80;87.10;;;;;;5063046;28;20550;-49
2022/01/12 12:39:10;;;;;;;9.30;6.77;;;8.70;87.00;;;;;;5062615;28;20476;-48
2022/01/12 12:41:39;;;;;;;9.27;8.13;;;8.60;85.70;;;;;;5061906;28;20488;-48
2022/01/12 12:44:06;;;;;;;9.27;7.20;;;8.50;87.30;;;;;;5064072;28;21188;-49
2022/01/12 12:46:34;;;;;;;10.07;7.40;;;8.30;86.40;;;;;;5043855;28;20491;-49
2022/01/12 12:49:09;;;;;;;8.60;7.10;;;8.30;87.60;;;;;;5080959;28;20988;-48
2022/01/12 12:51:35;;;;;;;13.50;7.17;;;8.20;87.70;;;;;;5063857;28;20570;-49
2022/01/12 12:54:03;;;;;;;7.47;6.20;;;8.20;87.10;;;;;;5059337;28;20984;-48
2022/01/12 12:56:32;;;;;;;9.83;7.37;;;8.10;87.10;;;;;;5067463;28;20738;-48
2022/01/12 12:58:59;;;;;;;8.17;7.37;;;8.20;88.70;;;;;;5032095;28;20480;-49
2022/01/12 13:01:27;;;;;;;10.40;7.70;;;8.20;87.90;;;;;;5071094;28;20495;-48
2022/01/12 13:03:58;;;;;;;9.90;7.53;;;8.20;89.20;;;;;;5064413;28;20485;-49
2022/01/12 13:06:28;;;;;;;11.10;6.70;;;8.30;88.60;;;;;;5062174;28;20483;-49
2022/01/12 13:08:57;;;;;;;18.17;10.03;;;8.30;87.50;;;;;;5064686;28;20715;-48
2022/01/12 13:11:28;;;;;;;9.23;6.70;;;8.60;88.10;;;;;;5063448;28;20583;-48
2022/01/12 13:14:00;;;;;;;11.37;7.20;;;8.60;89.10;;;;;;5046328;28;20494;-49
2022/01/12 13:16:27;;;;;;;10.47;7.53;;;8.80;87.10;;;;;;5061089;28;20979;-49
2022/01/12 13:19:05;;;;;;;12.20;9.30;;;8.80;87.80;;;;;;5064490;28;20493;-49
2022/01/12 13:21:32;;;;;;;11.90;8.00;;;8.90;88.20;;;;;;5053015;28;20477;-49
2022/01/12 13:24:00;;;;;;;16.37;9.57;;;9.10;87.60;;;;;;5064794;28;20463;-49
2022/01/12 13:26:31;;;;;;;18.33;10.20;;;9.20;87.60;;;;;;5073240;28;20508;-49
2022/01/12 13:29:01;;;;;;;10.30;7.70;;;9.30;87.40;;;;;;5066959;28;20484;-49
2022/01/12 13:31:29;;;;;;;9.87;8.10;;;9.40;86.60;;;;;;5060079;28;20567;-49
2022/01/12 13:34:01;;;;;;;8.40;7.07;;;9.40;87.50;;;;;;5067060;28;20579;-49
2022/01/12 13:36:29;;;;;;;20.30;9.43;;;9.50;85.40;;;;;;5064744;28;20484;-49
2022/01/12 13:38:58;;;;;;;21.13;10.77;;;9.50;85.80;;;;;;5063752;28;20486;-48
2022/01/12 13:41:27;;;;;;;12.80;9.20;;;9.50;87.30;;;;;;5063958;28;21084;-49
2022/01/12 13:43:57;;;;;;;15.77;11.33;;;9.60;88.00;;;;;;5055129;28;20579;-49
2022/01/12 13:46:31;;;;;;;19.50;13.73;;;9.80;86.80;;;;;;5071225;28;20473;-49
2022/01/12 13:49:21;;;;;;;20.20;11.07;;;9.90;85.80;;;;;;5056734;28;20477;-48
2022/01/12 13:51:57;;;;;;;13.10;9.97;;;9.90;85.60;;;;;;5052142;28;20469;-48
2022/01/12 13:54:27;;;;;;;10.90;8.40;;;10.00;85.10;;;;;;5047439;28;20563;-51
2022/01/12 13:56:55;;;;;;;14.10;10.30;;;10.10;84.60;;;;;;5060311;28;20546;-50